createdAt,value
2022-08-11T00:02:03.736Z,102259.66
2022-08-11T00:07:06.945Z,102248.31
2022-08-11T00:12:16.983Z,102248.09
2022-08-11T00:17:19.104Z,102251.38
2022-08-11T00:22:22.427Z,102251.13
2022-08-11T00:27:35.855Z,102259.78
2022-08-11T00:32:38.955Z,102261.06
2022-08-11T00:37:48.462Z,102263.06
2022-08-11T00:43:07.800Z,102268.47
2022-08-11T00:48:24.360Z,102263.31
2022-08-11T00:53:28.604Z,102255.78
2022-08-11T00:59:13.254Z,102249.50
2022-08-11T01:04:55.921Z,102254.06
2022-08-11T01:10:11.600Z,102252.97
2022-08-11T01:15:29.728Z,102256.88
2022-08-11T01:21:05.422Z,102255.16
2022-08-11T01:26:45.836Z,102250.63
2022-08-11T01:32:11.571Z,102242.63
2022-08-11T01:37:50.421Z,102242.44
2022-08-11T01:43:50.971Z,102239.69
2022-08-11T01:50:08.855Z,102242.72
2022-08-11T01:55:14.472Z,102241.84
2022-08-11T02:00:29.120Z,102244.44
2022-08-11T02:05:49.063Z,102233.66
2022-08-11T02:11:28.024Z,102238.22
2022-08-11T02:16:57.721Z,102238.63
2022-08-11T02:22:27.943Z,102239.50
2022-08-11T02:28:05.959Z,102228.56
2022-08-11T02:33:24.977Z,102226.38
2022-08-11T02:38:31.017Z,102225.09
2022-08-11T02:43:48.036Z,102228.97
2022-08-11T02:49:23.837Z,102224.28
2022-08-11T02:54:43.415Z,102218.69
2022-08-11T03:00:00.536Z,102216.13
2022-08-11T03:05:17.466Z,102209.22
2022-08-11T03:10:34.004Z,102209.84
2022-08-11T03:16:07.686Z,102204.50
2022-08-11T03:22:01.117Z,102201.69
2022-08-11T03:26:53.937Z,102205.75
2022-08-11T03:32:06.193Z,102206.41
2022-08-11T03:37:38.603Z,102213.50
2022-08-11T03:42:50.487Z,102196.50
2022-08-11T03:47:55.529Z,102195.47
2022-08-11T03:53:16.443Z,102202.97
2022-08-11T03:58:27.020Z,102206.41
2022-08-11T04:03:47.484Z,102211.38
2022-08-11T04:09:27.584Z,102204.06
2022-08-11T04:15:09.569Z,102205.78
2022-08-11T04:20:14.099Z,102206.22
2022-08-11T04:25:58.086Z,102212.03
2022-08-11T04:31:50.492Z,102213.31
2022-08-11T04:37:34.677Z,102203.84
2022-08-11T04:43:19.705Z,102202.75
2022-08-11T04:49:04.971Z,102203.22
2022-08-11T04:54:47.664Z,102194.63
2022-08-11T05:00:31.981Z,102189.22
2022-08-11T05:06:07.463Z,102197.19
2022-08-11T05:11:22.197Z,102196.97
2022-08-11T05:17:09.526Z,102194.59
2022-08-11T05:22:31.750Z,102193.75
2022-08-11T05:28:06.747Z,102198.47
2022-08-11T05:33:31.354Z,102207.09
2022-08-11T05:38:54.583Z,102205.81
2022-08-11T05:44:22.466Z,102204.50
2022-08-11T05:49:47.869Z,102213.94
2022-08-11T05:55:10.192Z,102207.91
2022-08-11T06:00:14.180Z,102215.25
2022-08-11T06:05:16.803Z,102216.75
2022-08-11T06:10:28.946Z,102217.22
2022-08-11T06:15:32.040Z,102218.03
2022-08-11T06:20:46.555Z,102229.66
2022-08-11T06:25:49.038Z,102220.38
2022-08-11T06:30:50.998Z,102219.88
2022-08-11T06:36:08.084Z,102209.09
2022-08-11T06:41:38.439Z,102217.38
2022-08-11T06:46:47.734Z,102211.56
2022-08-11T06:51:49.483Z,102208.75
2022-08-11T06:57:29.903Z,102214.53
2022-08-11T07:02:37.863Z,102220.50
2022-08-11T07:08:46.265Z,102212.91
2022-08-11T07:14:10.818Z,102215.59
2022-08-11T07:19:36.267Z,102219.84
2022-08-11T07:25:23.776Z,102208.13
2022-08-11T07:30:26.365Z,102208.94
2022-08-11T07:35:38.542Z,102208.84
2022-08-11T07:40:42.718Z,102207.94
2022-08-11T07:46:04.675Z,102199.88
2022-08-11T07:51:25.453Z,102203.81
2022-08-11T07:56:55.522Z,102204.53
2022-08-11T08:02:09.337Z,102201.31
2022-08-11T08:07:29.760Z,102201.19
2022-08-11T08:12:51.055Z,102198.94
2022-08-11T08:18:09.505Z,102209.50
2022-08-11T08:23:33.859Z,102201.38
2022-08-11T08:28:36.385Z,102213.22
2022-08-11T08:33:42.224Z,102201.97
2022-08-11T08:38:49.389Z,102209.72
2022-08-11T08:43:55.848Z,102209.16
2022-08-11T08:49:02.970Z,102203.69
2022-08-11T08:54:37.149Z,102201.41
2022-08-11T08:59:48.394Z,102203.03
2022-08-11T09:04:51.716Z,102199.22
2022-08-11T09:09:56.900Z,102191.47
2022-08-11T09:15:03.676Z,102195.03
2022-08-11T09:20:12.943Z,102196.03
2022-08-11T09:25:33.825Z,102192.81
2022-08-11T09:30:36.623Z,102186.34
2022-08-11T09:35:42.545Z,102191.06
2022-08-11T09:40:52.756Z,102181.69
2022-08-11T09:46:00.491Z,102188.94
2022-08-11T09:51:03.381Z,102191.78
2022-08-11T09:56:29.813Z,102176.19
2022-08-11T10:01:40.629Z,102175.25
2022-08-11T10:07:04.162Z,102165.34
2022-08-11T10:12:14.526Z,102164.31
2022-08-11T10:17:18.727Z,102160.81
2022-08-11T10:22:39.323Z,102147.56
2022-08-11T10:28:17.674Z,102154.22
2022-08-11T10:33:36.855Z,102149.38
2022-08-11T10:38:40.010Z,102149.44
2022-08-11T10:44:01.799Z,102139.09
2022-08-11T10:49:04.671Z,102142.09
2022-08-11T10:54:24.983Z,102132.06
2022-08-11T10:59:28.338Z,102132.47
2022-08-11T11:04:42.177Z,102134.41
2022-08-11T11:09:47.352Z,102112.25
2022-08-11T11:15:17.520Z,102125.75
2022-08-11T11:20:41.636Z,102123.84
2022-08-11T11:26:07.039Z,102128.97
2022-08-11T11:31:36.423Z,102119.31
2022-08-11T11:36:58.219Z,102122.16
2022-08-11T11:42:03.320Z,102126.94
2022-08-11T11:47:06.559Z,102125.25
2022-08-11T11:52:09.216Z,102123.31
2022-08-11T11:57:33.057Z,102113.91
2022-08-11T12:02:35.913Z,102116.19
2022-08-11T12:08:12.871Z,102110.66
2022-08-11T12:13:36.270Z,102107.00
2022-08-11T12:18:39.849Z,102101.34
2022-08-11T12:24:04.402Z,102096.53
2022-08-11T12:29:09.692Z,102090.84
2022-08-11T12:34:17.216Z,102089.47
2022-08-11T12:40:10.791Z,102090.31
2022-08-11T12:45:28.464Z,102090.31
2022-08-11T12:50:49.485Z,102081.25
2022-08-11T12:56:11.998Z,102062.53
2022-08-11T13:01:32.468Z,102053.44
2022-08-11T13:06:34.351Z,102053.44
2022-08-11T13:11:57.625Z,102050.63
2022-08-11T13:17:19.518Z,102040.41
2022-08-11T13:22:24.355Z,102046.06
2022-08-11T13:27:26.725Z,102047.22
2022-08-11T13:32:29.112Z,102037.84
2022-08-11T13:38:18.505Z,102044.06
2022-08-11T13:42:53.427Z,102043.78
2022-08-11T13:47:59.377Z,102033.56
2022-08-11T13:53:01.198Z,102035.25
2022-08-11T13:58:06.584Z,102028.16
2022-08-11T14:03:25.935Z,102025.59
2022-08-11T14:08:49.367Z,102019.06
2022-08-11T14:13:53.146Z,102014.25
2022-08-11T14:19:00.384Z,102011.66
2022-08-11T14:24:04.630Z,101998.59
2022-08-11T14:29:10.053Z,102004.56
2022-08-11T14:34:14.524Z,101990.09
2022-08-11T14:39:18.738Z,101986.69
2022-08-11T14:44:39.844Z,101986.03
2022-08-11T14:49:58.050Z,101974.13
2022-08-11T14:55:25.082Z,101985.00
2022-08-11T15:00:27.186Z,101975.59
2022-08-11T15:05:29.267Z,101970.16
2022-08-11T15:10:31.199Z,101970.75
2022-08-11T15:15:53.296Z,101968.78
2022-08-11T15:21:14.586Z,101961.66
2022-08-11T15:26:45.163Z,101962.50
2022-08-11T15:32:06.365Z,101952.03
2022-08-11T15:37:27.693Z,101942.69
2022-08-11T15:42:49.779Z,101946.94
2022-08-11T15:48:05.335Z,101938.75
2022-08-11T15:53:31.788Z,101939.34
2022-08-11T15:59:41.217Z,101933.94
2022-08-11T16:04:27.187Z,101925.13
2022-08-11T16:09:37.610Z,101924.00
2022-08-11T16:15:12.982Z,101917.47
2022-08-11T16:20:17.399Z,101922.84
2022-08-11T16:27:04.290Z,101916.63
2022-08-11T16:30:46.650Z,101912.66
2022-08-11T16:36:08.002Z,101907.56
2022-08-11T16:41:37.107Z,101914.06
2022-08-11T16:46:57.956Z,101910.66
2022-08-11T16:52:10.919Z,101904.44
2022-08-11T16:57:35.491Z,101905.75
2022-08-11T17:03:01.125Z,101899.50
2022-08-11T17:08:26.019Z,101886.25
2022-08-11T17:13:36.861Z,101891.31
2022-08-11T17:18:47.622Z,101888.47
2022-08-11T17:23:55.053Z,101890.84
2022-08-11T17:29:01.092Z,101889.13
2022-08-11T17:34:21.938Z,101888.31
2022-08-11T17:39:29.272Z,101887.22
2022-08-11T17:44:51.874Z,101893.66
2022-08-11T17:49:54.572Z,101890.88
2022-08-11T17:55:15.936Z,101889.56
2022-08-11T18:00:38.331Z,101888.81
2022-08-11T18:05:44.526Z,101890.41
2022-08-11T18:11:06.453Z,101899.59
2022-08-11T18:16:28.347Z,101898.66
2022-08-11T18:22:13.051Z,101890.94
2022-08-11T18:27:35.397Z,101891.59
2022-08-11T18:33:22.604Z,101896.06
2022-08-11T18:38:41.497Z,101908.91
2022-08-11T18:44:06.846Z,101905.50
2022-08-11T18:50:02.018Z,101906.22
2022-08-11T18:55:18.045Z,101929.03
2022-08-11T19:00:38.493Z,101917.63
2022-08-11T19:06:31.800Z,101921.16
2022-08-11T19:11:42.707Z,101918.00
2022-08-11T19:17:05.310Z,101924.66
2022-08-11T19:22:27.200Z,101928.09
2022-08-11T19:27:48.528Z,101931.06
2022-08-11T19:33:10.139Z,101934.94
2022-08-11T19:38:31.501Z,101936.09
2022-08-11T19:43:53.231Z,101944.41
2022-08-11T19:49:15.693Z,101946.97
2022-08-11T19:54:36.793Z,101950.16
2022-08-11T19:59:57.511Z,101952.38
2022-08-11T20:05:17.847Z,101949.97
2022-08-11T20:10:40.782Z,101952.63
2022-08-11T20:16:02.064Z,101939.13
2022-08-11T20:21:29.824Z,101948.59
2022-08-11T20:26:54.153Z,101950.75
2022-08-11T20:32:14.892Z,101951.03
2022-08-11T20:37:36.683Z,101950.19
2022-08-11T20:42:58.566Z,101956.56
2022-08-11T20:48:23.462Z,101953.56
2022-08-11T20:53:45.304Z,101965.16
2022-08-11T20:59:18.552Z,101957.44
2022-08-11T21:04:53.916Z,101960.25
2022-08-11T21:10:23.319Z,101956.38
2022-08-11T21:16:03.203Z,101959.13
2022-08-11T21:21:26.393Z,101960.19
2022-08-11T21:26:50.585Z,101946.88
2022-08-11T21:32:13.210Z,101954.56
2022-08-11T21:37:35.056Z,101940.41
2022-08-11T21:43:00.703Z,101938.81
2022-08-11T21:48:23.142Z,101943.72
2022-08-11T21:53:45.510Z,101948.03
2022-08-11T21:59:08.767Z,101948.75
2022-08-11T22:04:30.086Z,101953.69
2022-08-11T22:09:50.789Z,101947.69
2022-08-11T22:15:11.081Z,101945.22
2022-08-11T22:20:31.829Z,101945.00
2022-08-11T22:25:57.784Z,101946.59
2022-08-11T22:31:21.008Z,101942.06
2022-08-11T22:36:41.691Z,101944.78
2022-08-11T22:42:01.913Z,101944.16
2022-08-11T22:47:23.555Z,101955.91
2022-08-11T22:52:49.533Z,101957.00
2022-08-11T22:58:12.271Z,101949.28
2022-08-11T23:03:37.161Z,101954.06
2022-08-11T23:08:59.524Z,101958.94
2022-08-11T23:14:21.865Z,101953.59
2022-08-11T23:20:06.728Z,101959.56
2022-08-11T23:25:23.012Z,101960.50
2022-08-11T23:30:43.281Z,101958.31
2022-08-11T23:36:08.790Z,101952.06
2022-08-11T23:41:31.980Z,101954.50
2022-08-11T23:46:52.607Z,101954.03
2022-08-11T23:52:13.720Z,101949.22
2022-08-11T23:57:33.967Z,101949.72
